sensor_id;sensor_type;location;lat;lon;timestamp;P1;durP1;ratioP1;P2;durP2;ratioP2
11039;SDS011;5573;49.592;8.662;2022-10-15T00:00:35;601.13;;;560.85;;
11039;SDS011;5573;49.592;8.662;2022-10-15T00:03:25;584.78;;;546.20;;
11039;SDS011;5573;49.592;8.662;2022-10-15T00:06:15;577.75;;;539.25;;
11039;SDS011;5573;49.592;8.662;2022-10-15T00:09:05;607.75;;;567.35;;
11039;SDS011;5573;49.592;8.662;2022-10-15T00:11:53;585.72;;;547.80;;
11039;SDS011;5573;49.592;8.662;2022-10-15T00:14:42;587.00;;;548.25;;
11039;SDS011;5573;49.592;8.662;2022-10-15T00:17:29;581.17;;;542.72;;
11039;SDS011;5573;49.592;8.662;2022-10-15T00:20:19;578.53;;;540.22;;
11039;SDS011;5573;49.592;8.662;2022-10-15T00:23:07;580.60;;;542.67;;
11039;SDS011;5573;49.592;8.662;2022-10-15T00:26:02;582.90;;;544.42;;
11039;SDS011;5573;49.592;8.662;2022-10-15T00:28:52;588.05;;;549.08;;
11039;SDS011;5573;49.592;8.662;2022-10-15T00:31:41;604.47;;;564.35;;
11039;SDS011;5573;49.592;8.662;2022-10-15T00:34:31;580.20;;;542.15;;
11039;SDS011;5573;49.592;8.662;2022-10-15T00:37:20;599.28;;;560.58;;
11039;SDS011;5573;49.592;8.662;2022-10-15T00:40:09;595.67;;;556.90;;
11039;SDS011;5573;49.592;8.662;2022-10-15T00:43:00;596.75;;;557.83;;
11039;SDS011;5573;49.592;8.662;2022-10-15T00:45:48;596.85;;;557.38;;
11039;SDS011;5573;49.592;8.662;2022-10-15T00:48:36;605.15;;;564.75;;
11039;SDS011;5573;49.592;8.662;2022-10-15T00:51:25;588.90;;;549.63;;
11039;SDS011;5573;49.592;8.662;2022-10-15T00:54:19;580.00;;;541.40;;
11039;SDS011;5573;49.592;8.662;2022-10-15T00:57:08;636.67;;;595.38;;
11039;SDS011;5573;49.592;8.662;2022-10-15T00:59:57;567.03;;;528.97;;
11039;SDS011;5573;49.592;8.662;2022-10-15T01:02:50;575.17;;;537.05;;
11039;SDS011;5573;49.592;8.662;2022-10-15T01:05:38;593.10;;;554.80;;
11039;SDS011;5573;49.592;8.662;2022-10-15T01:08:29;585.80;;;546.42;;
11039;SDS011;5573;49.592;8.662;2022-10-15T01:11:29;557.30;;;520.72;;
11039;SDS011;5573;49.592;8.662;2022-10-15T01:14:28;564.75;;;526.97;;
11039;SDS011;5573;49.592;8.662;2022-10-15T01:17:26;600.08;;;560.30;;
11039;SDS011;5573;49.592;8.662;2022-10-15T01:20:35;588.20;;;549.30;;
11039;SDS011;5573;49.592;8.662;2022-10-15T01:23:55;567.33;;;530.05;;
11039;SDS011;5573;49.592;8.662;2022-10-15T01:27:16;540.25;;;504.58;;
11039;SDS011;5573;49.592;8.662;2022-10-15T01:30:18;581.30;;;543.88;;
11039;SDS011;5573;49.592;8.662;2022-10-15T01:33:16;584.60;;;546.72;;
11039;SDS011;5573;49.592;8.662;2022-10-15T01:36:14;589.70;;;551.22;;
11039;SDS011;5573;49.592;8.662;2022-10-15T01:39:07;576.13;;;537.45;;
11039;SDS011;5573;49.592;8.662;2022-10-15T01:41:59;572.80;;;535.05;;
11039;SDS011;5573;49.592;8.662;2022-10-15T01:44:51;564.65;;;527.42;;
11039;SDS011;5573;49.592;8.662;2022-10-15T01:48:10;580.78;;;542.92;;
11039;SDS011;5573;49.592;8.662;2022-10-15T01:50:59;576.05;;;538.65;;
11039;SDS011;5573;49.592;8.662;2022-10-15T01:53:51;563.45;;;526.42;;
11039;SDS011;5573;49.592;8.662;2022-10-15T01:56:40;597.83;;;557.05;;
11039;SDS011;5573;49.592;8.662;2022-10-15T01:59:37;589.15;;;549.58;;
11039;SDS011;5573;49.592;8.662;2022-10-15T02:02:26;592.17;;;553.63;;
11039;SDS011;5573;49.592;8.662;2022-10-15T02:05:16;573.03;;;535.40;;
11039;SDS011;5573;49.592;8.662;2022-10-15T02:08:13;583.78;;;544.88;;
11039;SDS011;5573;49.592;8.662;2022-10-15T02:11:13;579.97;;;541.92;;
11039;SDS011;5573;49.592;8.662;2022-10-15T02:14:06;574.78;;;536.65;;
11039;SDS011;5573;49.592;8.662;2022-10-15T02:17:01;613.97;;;572.47;;
11039;SDS011;5573;49.592;8.662;2022-10-15T02:19:54;591.15;;;551.78;;
11039;SDS011;5573;49.592;8.662;2022-10-15T02:22:49;594.20;;;553.50;;
11039;SDS011;5573;49.592;8.662;2022-10-15T02:25:43;575.53;;;537.80;;
11039;SDS011;5573;49.592;8.662;2022-10-15T02:28:34;582.45;;;543.15;;
11039;SDS011;5573;49.592;8.662;2022-10-15T02:31:25;569.28;;;530.45;;
11039;SDS011;5573;49.592;8.662;2022-10-15T02:34:18;570.72;;;532.97;;
11039;SDS011;5573;49.592;8.662;2022-10-15T02:37:09;574.33;;;536.00;;
11039;SDS011;5573;49.592;8.662;2022-10-15T02:40:02;573.38;;;534.35;;
11039;SDS011;5573;49.592;8.662;2022-10-15T02:42:51;603.03;;;562.63;;
11039;SDS011;5573;49.592;8.662;2022-10-15T02:45:39;591.85;;;550.65;;
11039;SDS011;5573;49.592;8.662;2022-10-15T02:48:27;586.60;;;547.50;;
11039;SDS011;5573;49.592;8.662;2022-10-15T02:51:15;584.55;;;545.55;;
11039;SDS011;5573;49.592;8.662;2022-10-15T02:54:03;604.65;;;564.53;;
11039;SDS011;5573;49.592;8.662;2022-10-15T02:56:54;597.38;;;557.13;;
11039;SDS011;5573;49.592;8.662;2022-10-15T02:59:42;580.17;;;541.60;;
11039;SDS011;5573;49.592;8.662;2022-10-15T03:02:29;561.47;;;524.35;;
11039;SDS011;5573;49.592;8.662;2022-10-15T03:05:18;573.72;;;534.80;;
11039;SDS011;5573;49.592;8.662;2022-10-15T03:08:06;584.17;;;545.13;;
11039;SDS011;5573;49.592;8.662;2022-10-15T03:10:54;589.40;;;549.70;;
11039;SDS011;5573;49.592;8.662;2022-10-15T03:13:44;594.83;;;554.40;;
11039;SDS011;5573;49.592;8.662;2022-10-15T03:16:32;583.17;;;543.25;;
11039;SDS011;5573;49.592;8.662;2022-10-15T03:19:20;586.38;;;546.72;;
11039;SDS011;5573;49.592;8.662;2022-10-15T03:22:08;590.45;;;549.40;;
11039;SDS011;5573;49.592;8.662;2022-10-15T03:25:06;602.08;;;560.42;;
11039;SDS011;5573;49.592;8.662;2022-10-15T03:27:55;562.65;;;524.50;;
11039;SDS011;5573;49.592;8.662;2022-10-15T03:30:52;589.78;;;550.17;;
11039;SDS011;5573;49.592;8.662;2022-10-15T03:33:41;558.50;;;520.85;;
11039;SDS011;5573;49.592;8.662;2022-10-15T03:36:29;584.03;;;544.90;;
11039;SDS011;5573;49.592;8.662;2022-10-15T03:39:18;589.13;;;549.33;;
11039;SDS011;5573;49.592;8.662;2022-10-15T03:42:08;550.50;;;514.20;;
11039;SDS011;5573;49.592;8.662;2022-10-15T03:45:03;569.45;;;530.55;;
11039;SDS011;5573;49.592;8.662;2022-10-15T03:47:54;578.05;;;539.55;;
11039;SDS011;5573;49.592;8.662;2022-10-15T03:50:45;573.17;;;534.83;;
11039;SDS011;5573;49.592;8.662;2022-10-15T03:53:34;560.28;;;522.40;;
11039;SDS011;5573;49.592;8.662;2022-10-15T03:56:22;594.58;;;554.33;;
11039;SDS011;5573;49.592;8.662;2022-10-15T03:59:15;555.15;;;516.85;;
11039;SDS011;5573;49.592;8.662;2022-10-15T04:02:14;577.97;;;539.15;;
11039;SDS011;5573;49.592;8.662;2022-10-15T04:05:04;585.35;;;545.85;;
11039;SDS011;5573;49.592;8.662;2022-10-15T04:07:53;578.13;;;539.75;;
11039;SDS011;5573;49.592;8.662;2022-10-15T04:10:42;580.20;;;541.05;;
11039;SDS011;5573;49.592;8.662;2022-10-15T04:13:30;551.28;;;514.35;;
11039;SDS011;5573;49.592;8.662;2022-10-15T04:16:18;589.35;;;549.38;;
11039;SDS011;5573;49.592;8.662;2022-10-15T04:19:06;567.15;;;529.65;;
11039;SDS011;5573;49.592;8.662;2022-10-15T04:21:59;541.85;;;506.23;;
11039;SDS011;5573;49.592;8.662;2022-10-15T04:24:56;551.22;;;514.63;;
11039;SDS011;5573;49.592;8.662;2022-10-15T04:27:46;564.38;;;527.03;;
11039;SDS011;5573;49.592;8.662;2022-10-15T04:30:36;591.67;;;552.00;;
11039;SDS011;5573;49.592;8.662;2022-10-15T04:33:28;594.92;;;555.85;;
11039;SDS011;5573;49.592;8.662;2022-10-15T04:36:18;578.67;;;539.92;;
11039;SDS011;5573;49.592;8.662;2022-10-15T04:39:12;560.97;;;523.53;;
11039;SDS011;5573;49.592;8.662;2022-10-15T04:42:02;551.38;;;514.78;;
11039;SDS011;5573;49.592;8.662;2022-10-15T04:44:52;545.55;;;508.85;;
11039;SDS011;5573;49.592;8.662;2022-10-15T04:47:40;540.92;;;505.23;;
11039;SDS011;5573;49.592;8.662;2022-10-15T04:50:31;599.03;;;559.15;;
11039;SDS011;5573;49.592;8.662;2022-10-15T04:53:45;558.05;;;521.78;;
11039;SDS011;5573;49.592;8.662;2022-10-15T04:56:35;584.67;;;545.45;;
11039;SDS011;5573;49.592;8.662;2022-10-15T04:59:23;575.97;;;538.80;;
11039;SDS011;5573;49.592;8.662;2022-10-15T05:02:46;549.45;;;513.33;;
11039;SDS011;5573;49.592;8.662;2022-10-15T05:05:49;557.85;;;520.47;;
11039;SDS011;5573;49.592;8.662;2022-10-15T05:08:38;544.30;;;507.40;;
11039;SDS011;5573;49.592;8.662;2022-10-15T05:11:38;546.60;;;510.13;;
11039;SDS011;5573;49.592;8.662;2022-10-15T05:14:30;564.80;;;528.25;;
11039;SDS011;5573;49.592;8.662;2022-10-15T05:17:30;559.40;;;522.08;;
11039;SDS011;5573;49.592;8.662;2022-10-15T05:20:18;573.75;;;535.80;;
11039;SDS011;5573;49.592;8.662;2022-10-15T05:23:07;569.80;;;532.78;;
11039;SDS011;5573;49.592;8.662;2022-10-15T05:25:57;575.10;;;536.90;;
11039;SDS011;5573;49.592;8.662;2022-10-15T05:28:47;567.55;;;529.50;;
11039;SDS011;5573;49.592;8.662;2022-10-15T05:31:44;603.15;;;563.53;;
11039;SDS011;5573;49.592;8.662;2022-10-15T05:34:36;576.95;;;539.13;;
11039;SDS011;5573;49.592;8.662;2022-10-15T05:37:30;578.85;;;540.80;;
11039;SDS011;5573;49.592;8.662;2022-10-15T05:40:18;594.72;;;553.53;;
11039;SDS011;5573;49.592;8.662;2022-10-15T05:43:20;577.45;;;538.53;;
11039;SDS011;5573;49.592;8.662;2022-10-15T05:46:10;567.30;;;529.17;;
11039;SDS011;5573;49.592;8.662;2022-10-15T05:48:58;587.03;;;547.70;;
11039;SDS011;5573;49.592;8.662;2022-10-15T05:51:48;548.28;;;512.22;;
11039;SDS011;5573;49.592;8.662;2022-10-15T05:54:51;586.67;;;548.22;;
11039;SDS011;5573;49.592;8.662;2022-10-15T05:57:39;578.95;;;540.58;;
11039;SDS011;5573;49.592;8.662;2022-10-15T06:00:27;570.60;;;532.67;;
11039;SDS011;5573;49.592;8.662;2022-10-15T06:03:17;610.25;;;568.90;;
11039;SDS011;5573;49.592;8.662;2022-10-15T06:05:44;586.67;;;548.03;;
11039;SDS011;5573;49.592;8.662;2022-10-15T06:08:12;575.58;;;536.83;;
11039;SDS011;5573;49.592;8.662;2022-10-15T06:10:40;576.85;;;538.83;;
11039;SDS011;5573;49.592;8.662;2022-10-15T06:13:07;549.50;;;513.47;;
11039;SDS011;5573;49.592;8.662;2022-10-15T06:15:37;578.22;;;540.38;;
11039;SDS011;5573;49.592;8.662;2022-10-15T06:18:07;581.45;;;543.17;;
11039;SDS011;5573;49.592;8.662;2022-10-15T06:20:37;570.88;;;533.20;;
11039;SDS011;5573;49.592;8.662;2022-10-15T06:23:05;612.03;;;570.55;;
11039;SDS011;5573;49.592;8.662;2022-10-15T06:25:34;595.72;;;555.95;;
11039;SDS011;5573;49.592;8.662;2022-10-15T06:28:02;606.17;;;565.53;;
11039;SDS011;5573;49.592;8.662;2022-10-15T06:30:40;578.85;;;540.97;;
11039;SDS011;5573;49.592;8.662;2022-10-15T06:33:07;595.50;;;554.63;;
11039;SDS011;5573;49.592;8.662;2022-10-15T06:35:38;599.70;;;560.47;;
11039;SDS011;5573;49.592;8.662;2022-10-15T06:38:06;583.10;;;544.03;;
11039;SDS011;5573;49.592;8.662;2022-10-15T06:40:34;571.95;;;533.15;;
11039;SDS011;5573;49.592;8.662;2022-10-15T06:43:02;583.67;;;545.38;;
11039;SDS011;5573;49.592;8.662;2022-10-15T06:45:30;578.17;;;538.83;;
11039;SDS011;5573;49.592;8.662;2022-10-15T06:47:58;592.60;;;553.97;;
11039;SDS011;5573;49.592;8.662;2022-10-15T06:50:26;586.70;;;548.15;;
11039;SDS011;5573;49.592;8.662;2022-10-15T06:52:55;594.50;;;554.75;;
11039;SDS011;5573;49.592;8.662;2022-10-15T06:55:27;584.22;;;546.60;;
11039;SDS011;5573;49.592;8.662;2022-10-15T06:57:55;598.58;;;558.67;;
11039;SDS011;5573;49.592;8.662;2022-10-15T07:00:24;572.40;;;534.28;;
11039;SDS011;5573;49.592;8.662;2022-10-15T07:02:53;593.58;;;553.78;;
11039;SDS011;5573;49.592;8.662;2022-10-15T07:05:20;588.72;;;550.47;;
11039;SDS011;5573;49.592;8.662;2022-10-15T07:07:51;591.83;;;552.22;;
11039;SDS011;5573;49.592;8.662;2022-10-15T07:10:21;587.95;;;548.60;;
11039;SDS011;5573;49.592;8.662;2022-10-15T07:12:48;586.38;;;546.47;;
11039;SDS011;5573;49.592;8.662;2022-10-15T07:15:16;591.20;;;552.25;;
11039;SDS011;5573;49.592;8.662;2022-10-15T07:17:45;603.70;;;563.13;;
11039;SDS011;5573;49.592;8.662;2022-10-15T07:20:14;587.58;;;548.78;;
11039;SDS011;5573;49.592;8.662;2022-10-15T07:22:49;559.17;;;522.53;;
11039;SDS011;5573;49.592;8.662;2022-10-15T07:25:18;581.92;;;543.47;;
11039;SDS011;5573;49.592;8.662;2022-10-15T07:27:46;577.85;;;539.05;;
11039;SDS011;5573;49.592;8.662;2022-10-15T07:30:14;579.30;;;539.47;;
11039;SDS011;5573;49.592;8.662;2022-10-15T07:32:42;609.35;;;569.10;;
11039;SDS011;5573;49.592;8.662;2022-10-15T07:35:12;566.72;;;529.25;;
11039;SDS011;5573;49.592;8.662;2022-10-15T07:37:40;598.83;;;558.60;;
11039;SDS011;5573;49.592;8.662;2022-10-15T07:40:08;579.90;;;541.88;;
11039;SDS011;5573;49.592;8.662;2022-10-15T07:42:37;593.33;;;554.25;;
11039;SDS011;5573;49.592;8.662;2022-10-15T07:45:08;597.85;;;557.55;;
11039;SDS011;5573;49.592;8.662;2022-10-15T07:47:38;599.75;;;559.45;;
11039;SDS011;5573;49.592;8.662;2022-10-15T07:50:06;599.97;;;559.92;;
11039;SDS011;5573;49.592;8.662;2022-10-15T07:52:34;591.63;;;552.30;;
11039;SDS011;5573;49.592;8.662;2022-10-15T07:55:02;601.45;;;561.83;;
11039;SDS011;5573;49.592;8.662;2022-10-15T07:57:30;570.58;;;532.53;;
11039;SDS011;5573;49.592;8.662;2022-10-15T07:59:57;615.25;;;574.65;;
11039;SDS011;5573;49.592;8.662;2022-10-15T08:02:26;590.85;;;551.72;;
11039;SDS011;5573;49.592;8.662;2022-10-15T08:04:54;615.20;;;575.33;;
11039;SDS011;5573;49.592;8.662;2022-10-15T08:07:22;626.28;;;585.10;;
11039;SDS011;5573;49.592;8.662;2022-10-15T08:09:49;591.67;;;552.00;;
11039;SDS011;5573;49.592;8.662;2022-10-15T08:12:17;588.15;;;548.72;;
11039;SDS011;5573;49.592;8.662;2022-10-15T08:14:45;588.22;;;549.45;;
11039;SDS011;5573;49.592;8.662;2022-10-15T08:17:13;605.40;;;565.33;;
11039;SDS011;5573;49.592;8.662;2022-10-15T08:19:42;609.25;;;568.97;;
11039;SDS011;5573;49.592;8.662;2022-10-15T08:22:09;609.85;;;569.20;;
11039;SDS011;5573;49.592;8.662;2022-10-15T08:24:38;619.88;;;578.38;;
11039;SDS011;5573;49.592;8.662;2022-10-15T08:27:05;593.45;;;554.53;;
11039;SDS011;5573;49.592;8.662;2022-10-15T08:29:33;615.47;;;574.15;;
11039;SDS011;5573;49.592;8.662;2022-10-15T08:32:00;588.63;;;549.42;;
11039;SDS011;5573;49.592;8.662;2022-10-15T08:34:29;601.60;;;562.53;;
11039;SDS011;5573;49.592;8.662;2022-10-15T08:36:58;615.03;;;574.47;;
11039;SDS011;5573;49.592;8.662;2022-10-15T08:39:25;596.35;;;556.13;;
11039;SDS011;5573;49.592;8.662;2022-10-15T08:41:53;616.97;;;576.33;;
11039;SDS011;5573;49.592;8.662;2022-10-15T08:44:24;599.85;;;559.85;;
11039;SDS011;5573;49.592;8.662;2022-10-15T08:46:54;622.95;;;581.20;;
11039;SDS011;5573;49.592;8.662;2022-10-15T08:49:33;605.90;;;565.50;;
11039;SDS011;5573;49.592;8.662;2022-10-15T08:52:12;585.08;;;546.17;;
11039;SDS011;5573;49.592;8.662;2022-10-15T08:54:46;607.38;;;566.35;;
11039;SDS011;5573;49.592;8.662;2022-10-15T08:57:16;602.08;;;562.38;;
11039;SDS011;5573;49.592;8.662;2022-10-15T08:59:51;594.85;;;555.92;;
11039;SDS011;5573;49.592;8.662;2022-10-15T09:02:28;576.05;;;537.60;;
11039;SDS011;5573;49.592;8.662;2022-10-15T09:05:02;598.25;;;557.42;;
11039;SDS011;5573;49.592;8.662;2022-10-15T09:07:48;600.92;;;561.95;;
11039;SDS011;5573;49.592;8.662;2022-10-15T09:10:29;596.08;;;556.25;;
11039;SDS011;5573;49.592;8.662;2022-10-15T09:13:03;600.00;;;559.17;;
11039;SDS011;5573;49.592;8.662;2022-10-15T09:15:43;582.38;;;544.00;;
11039;SDS011;5573;49.592;8.662;2022-10-15T09:18:17;576.45;;;538.35;;
11039;SDS011;5573;49.592;8.662;2022-10-15T09:20:50;581.60;;;543.28;;
11039;SDS011;5573;49.592;8.662;2022-10-15T09:23:21;597.67;;;558.65;;
11039;SDS011;5573;49.592;8.662;2022-10-15T09:25:54;597.30;;;557.92;;
11039;SDS011;5573;49.592;8.662;2022-10-15T09:28:28;581.83;;;541.97;;
11039;SDS011;5573;49.592;8.662;2022-10-15T09:31:04;551.65;;;515.13;;
11039;SDS011;5573;49.592;8.662;2022-10-15T09:33:36;551.97;;;516.97;;
11039;SDS011;5573;49.592;8.662;2022-10-15T09:36:10;588.75;;;549.83;;
11039;SDS011;5573;49.592;8.662;2022-10-15T09:38:48;571.45;;;534.38;;
11039;SDS011;5573;49.592;8.662;2022-10-15T09:41:28;573.40;;;536.58;;
11039;SDS011;5573;49.592;8.662;2022-10-15T09:44:04;557.63;;;520.90;;
11039;SDS011;5573;49.592;8.662;2022-10-15T09:46:46;543.47;;;508.52;;
11039;SDS011;5573;49.592;8.662;2022-10-15T09:49:16;579.30;;;541.42;;
11039;SDS011;5573;49.592;8.662;2022-10-15T09:51:54;566.60;;;530.08;;
11039;SDS011;5573;49.592;8.662;2022-10-15T09:54:30;580.50;;;542.85;;
11039;SDS011;5573;49.592;8.662;2022-10-15T09:57:06;577.03;;;539.35;;
11039;SDS011;5573;49.592;8.662;2022-10-15T09:59:36;582.42;;;543.90;;
11039;SDS011;5573;49.592;8.662;2022-10-15T10:02:09;571.78;;;534.72;;
11039;SDS011;5573;49.592;8.662;2022-10-15T10:04:44;522.88;;;488.92;;
11039;SDS011;5573;49.592;8.662;2022-10-15T10:07:26;570.97;;;534.05;;
11039;SDS011;5573;49.592;8.662;2022-10-15T10:10:00;528.40;;;494.52;;
11039;SDS011;5573;49.592;8.662;2022-10-15T10:12:31;564.80;;;528.88;;
11039;SDS011;5573;49.592;8.662;2022-10-15T10:15:03;576.53;;;539.35;;
11039;SDS011;5573;49.592;8.662;2022-10-15T10:17:32;565.30;;;528.33;;
11039;SDS011;5573;49.592;8.662;2022-10-15T10:22:46;562.40;;;525.88;;
11039;SDS011;5573;49.592;8.662;2022-10-15T10:25:29;581.83;;;543.95;;
11039;SDS011;5573;49.592;8.662;2022-10-15T10:28:02;560.85;;;524.85;;
11039;SDS011;5573;49.592;8.662;2022-10-15T10:30:34;581.33;;;544.05;;
11039;SDS011;5573;49.592;8.662;2022-10-15T10:33:03;585.08;;;546.85;;
11039;SDS011;5573;49.592;8.662;2022-10-15T10:35:34;578.33;;;540.17;;
11039;SDS011;5573;49.592;8.662;2022-10-15T10:38:16;572.38;;;534.60;;
11039;SDS011;5573;49.592;8.662;2022-10-15T10:40:50;576.05;;;538.78;;
11039;SDS011;5573;49.592;8.662;2022-10-15T10:43:22;573.22;;;535.40;;
11039;SDS011;5573;49.592;8.662;2022-10-15T10:45:52;582.83;;;544.80;;
11039;SDS011;5573;49.592;8.662;2022-10-15T10:48:22;578.40;;;539.05;;
11039;SDS011;5573;49.592;8.662;2022-10-15T10:51:03;576.97;;;539.78;;
11039;SDS011;5573;49.592;8.662;2022-10-15T10:53:37;597.92;;;558.55;;
11039;SDS011;5573;49.592;8.662;2022-10-15T10:56:12;588.92;;;549.53;;
11039;SDS011;5573;49.592;8.662;2022-10-15T10:58:40;582.55;;;543.97;;
11039;SDS011;5573;49.592;8.662;2022-10-15T11:01:10;582.15;;;543.08;;
11039;SDS011;5573;49.592;8.662;2022-10-15T11:03:39;590.55;;;550.75;;
11039;SDS011;5573;49.592;8.662;2022-10-15T11:06:19;588.92;;;550.00;;
11039;SDS011;5573;49.592;8.662;2022-10-15T11:09:02;592.25;;;553.03;;
11039;SDS011;5573;49.592;8.662;2022-10-15T11:11:44;572.92;;;534.35;;
11039;SDS011;5573;49.592;8.662;2022-10-15T11:14:23;595.22;;;554.65;;
11039;SDS011;5573;49.592;8.662;2022-10-15T11:16:57;607.65;;;567.15;;
11039;SDS011;5573;49.592;8.662;2022-10-15T11:19:33;563.15;;;525.55;;
11039;SDS011;5573;49.592;8.662;2022-10-15T11:22:34;570.28;;;531.65;;
11039;SDS011;5573;49.592;8.662;2022-10-15T11:25:15;563.88;;;527.40;;
11039;SDS011;5573;49.592;8.662;2022-10-15T11:27:57;576.33;;;539.35;;
11039;SDS011;5573;49.592;8.662;2022-10-15T11:30:37;551.83;;;516.53;;
11039;SDS011;5573;49.592;8.662;2022-10-15T11:33:29;557.90;;;521.42;;
11039;SDS011;5573;49.592;8.662;2022-10-15T11:36:21;560.40;;;524.35;;
11039;SDS011;5573;49.592;8.662;2022-10-15T11:38:57;546.75;;;511.15;;
11039;SDS011;5573;49.592;8.662;2022-10-15T11:41:38;529.17;;;494.42;;
11039;SDS011;5573;49.592;8.662;2022-10-15T11:44:23;561.97;;;525.47;;
11039;SDS011;5573;49.592;8.662;2022-10-15T11:47:14;538.10;;;504.05;;
11039;SDS011;5573;49.592;8.662;2022-10-15T11:49:54;547.65;;;512.33;;
11039;SDS011;5573;49.592;8.662;2022-10-15T11:52:35;558.28;;;522.55;;
11039;SDS011;5573;49.592;8.662;2022-10-15T11:55:13;558.40;;;522.30;;
11039;SDS011;5573;49.592;8.662;2022-10-15T11:57:45;543.88;;;509.33;;
11039;SDS011;5573;49.592;8.662;2022-10-15T12:00:22;533.70;;;498.60;;
11039;SDS011;5573;49.592;8.662;2022-10-15T12:02:59;532.13;;;497.80;;
11039;SDS011;5573;49.592;8.662;2022-10-15T12:05:32;525.92;;;491.70;;
11039;SDS011;5573;49.592;8.662;2022-10-15T12:08:04;553.88;;;518.08;;
11039;SDS011;5573;49.592;8.662;2022-10-15T12:10:35;521.78;;;487.90;;
11039;SDS011;5573;49.592;8.662;2022-10-15T12:13:15;555.47;;;519.80;;
11039;SDS011;5573;49.592;8.662;2022-10-15T12:15:52;550.78;;;514.85;;
11039;SDS011;5573;49.592;8.662;2022-10-15T12:18:31;529.83;;;496.67;;
11039;SDS011;5573;49.592;8.662;2022-10-15T12:23:56;536.20;;;502.88;;
11039;SDS011;5573;49.592;8.662;2022-10-15T12:26:25;540.10;;;505.80;;
11039;SDS011;5573;49.592;8.662;2022-10-15T12:28:59;536.70;;;502.73;;
11039;SDS011;5573;49.592;8.662;2022-10-15T12:31:48;525.53;;;491.45;;
11039;SDS011;5573;49.592;8.662;2022-10-15T12:34:29;521.90;;;488.45;;
11039;SDS011;5573;49.592;8.662;2022-10-15T12:37:05;535.15;;;501.30;;
11039;SDS011;5573;49.592;8.662;2022-10-15T12:39:45;534.88;;;500.80;;
11039;SDS011;5573;49.592;8.662;2022-10-15T12:42:19;543.72;;;508.73;;
11039;SDS011;5573;49.592;8.662;2022-10-15T12:44:52;535.38;;;500.75;;
11039;SDS011;5573;49.592;8.662;2022-10-15T12:47:46;524.35;;;490.45;;
11039;SDS011;5573;49.592;8.662;2022-10-15T12:50:16;526.53;;;493.10;;
11039;SDS011;5573;49.592;8.662;2022-10-15T12:52:49;557.88;;;522.22;;
11039;SDS011;5573;49.592;8.662;2022-10-15T12:55:22;510.00;;;477.73;;
11039;SDS011;5573;49.592;8.662;2022-10-15T12:57:55;511.35;;;479.05;;
11039;SDS011;5573;49.592;8.662;2022-10-15T13:00:35;506.27;;;474.48;;
11039;SDS011;5573;49.592;8.662;2022-10-15T13:03:09;515.78;;;483.67;;
11039;SDS011;5573;49.592;8.662;2022-10-15T13:05:42;508.42;;;476.45;;
11039;SDS011;5573;49.592;8.662;2022-10-15T13:08:14;525.22;;;491.75;;
11039;SDS011;5573;49.592;8.662;2022-10-15T13:10:49;528.05;;;494.20;;
11039;SDS011;5573;49.592;8.662;2022-10-15T13:13:21;507.25;;;474.65;;
11039;SDS011;5573;49.592;8.662;2022-10-15T13:15:54;543.70;;;508.75;;
11039;SDS011;5573;49.592;8.662;2022-10-15T13:18:25;525.50;;;492.20;;
11039;SDS011;5573;49.592;8.662;2022-10-15T13:20:56;518.67;;;486.38;;
11039;SDS011;5573;49.592;8.662;2022-10-15T13:23:24;546.35;;;512.28;;
11039;SDS011;5573;49.592;8.662;2022-10-15T13:26:09;533.20;;;499.52;;
11039;SDS011;5573;49.592;8.662;2022-10-15T13:28:38;534.90;;;501.67;;
11039;SDS011;5573;49.592;8.662;2022-10-15T13:31:11;524.35;;;491.02;;
11039;SDS011;5573;49.592;8.662;2022-10-15T13:33:44;551.75;;;517.30;;
11039;SDS011;5573;49.592;8.662;2022-10-15T13:36:16;524.13;;;491.65;;
11039;SDS011;5573;49.592;8.662;2022-10-15T13:38:50;521.33;;;489.10;;
11039;SDS011;5573;49.592;8.662;2022-10-15T13:41:23;548.40;;;513.42;;
11039;SDS011;5573;49.592;8.662;2022-10-15T13:43:53;493.40;;;462.35;;
11039;SDS011;5573;49.592;8.662;2022-10-15T13:46:24;522.83;;;490.90;;
11039;SDS011;5573;49.592;8.662;2022-10-15T13:48:57;557.97;;;522.42;;
11039;SDS011;5573;49.592;8.662;2022-10-15T13:51:30;547.90;;;512.63;;
11039;SDS011;5573;49.592;8.662;2022-10-15T13:54:00;516.60;;;484.35;;
11039;SDS011;5573;49.592;8.662;2022-10-15T13:56:34;518.58;;;485.75;;
11039;SDS011;5573;49.592;8.662;2022-10-15T13:59:02;549.78;;;514.03;;
11039;SDS011;5573;49.592;8.662;2022-10-15T14:01:30;545.28;;;510.50;;
11039;SDS011;5573;49.592;8.662;2022-10-15T14:04:01;543.92;;;507.77;;
11039;SDS011;5573;49.592;8.662;2022-10-15T14:06:30;555.00;;;518.28;;
11039;SDS011;5573;49.592;8.662;2022-10-15T14:09:00;551.47;;;516.08;;
11039;SDS011;5573;49.592;8.662;2022-10-15T14:11:37;527.58;;;494.67;;
11039;SDS011;5573;49.592;8.662;2022-10-15T14:16:55;533.10;;;498.23;;
11039;SDS011;5573;49.592;8.662;2022-10-15T14:19:26;533.08;;;498.58;;
11039;SDS011;5573;49.592;8.662;2022-10-15T14:21:56;516.95;;;483.80;;
11039;SDS011;5573;49.592;8.662;2022-10-15T14:24:27;567.78;;;529.88;;
11039;SDS011;5573;49.592;8.662;2022-10-15T14:27:02;546.45;;;510.85;;
11039;SDS011;5573;49.592;8.662;2022-10-15T14:29:36;549.95;;;514.30;;
11039;SDS011;5573;49.592;8.662;2022-10-15T14:32:19;501.33;;;468.95;;
11039;SDS011;5573;49.592;8.662;2022-10-15T14:34:50;538.05;;;503.52;;
11039;SDS011;5573;49.592;8.662;2022-10-15T14:37:30;531.55;;;497.48;;
11039;SDS011;5573;49.592;8.662;2022-10-15T14:40:11;512.83;;;479.83;;
11039;SDS011;5573;49.592;8.662;2022-10-15T14:42:45;546.28;;;511.08;;
11039;SDS011;5573;49.592;8.662;2022-10-15T14:45:18;537.38;;;503.33;;
11039;SDS011;5573;49.592;8.662;2022-10-15T14:47:50;528.70;;;496.45;;
11039;SDS011;5573;49.592;8.662;2022-10-15T14:50:23;548.53;;;514.30;;
11039;SDS011;5573;49.592;8.662;2022-10-15T14:52:51;534.95;;;500.45;;
11039;SDS011;5573;49.592;8.662;2022-10-15T14:55:28;519.45;;;485.83;;
11039;SDS011;5573;49.592;8.662;2022-10-15T14:57:59;522.97;;;489.08;;
11039;SDS011;5573;49.592;8.662;2022-10-15T15:00:37;528.30;;;494.60;;
11039;SDS011;5573;49.592;8.662;2022-10-15T15:03:10;531.05;;;498.25;;
11039;SDS011;5573;49.592;8.662;2022-10-15T15:05:44;526.55;;;493.25;;
11039;SDS011;5573;49.592;8.662;2022-10-15T15:08:13;548.67;;;513.83;;
11039;SDS011;5573;49.592;8.662;2022-10-15T15:10:41;537.80;;;502.83;;
11039;SDS011;5573;49.592;8.662;2022-10-15T15:13:10;519.92;;;485.88;;
11039;SDS011;5573;49.592;8.662;2022-10-15T15:15:41;528.97;;;495.60;;
11039;SDS011;5573;49.592;8.662;2022-10-15T15:18:09;529.30;;;495.00;;
11039;SDS011;5573;49.592;8.662;2022-10-15T15:20:38;513.40;;;480.75;;
11039;SDS011;5573;49.592;8.662;2022-10-15T15:23:10;518.53;;;485.17;;
11039;SDS011;5573;49.592;8.662;2022-10-15T15:25:40;523.50;;;490.02;;
11039;SDS011;5573;49.592;8.662;2022-10-15T15:28:10;529.80;;;495.83;;
11039;SDS011;5573;49.592;8.662;2022-10-15T15:30:40;524.65;;;491.25;;